Time;durP1;ratioP1;P1;durP2;ratioP2;P2;SDS_P1;SDS_P2;PMS_P1;PMS_P2;Temp;Humidity;BMP_temperature;BMP_pressure;BME280_temperature;BME280_humidity;BME280_pressure;Samples;Min_cycle;Max_cycle;Signal;HPM_P1;HPM_P2
2021/01/16 00:00:09;;;;;;;;;;;;;;;14.58;36.27;101076.53;4383849;32;19985;-63
2021/01/16 00:02:35;;;;;;;;;;;;;;;14.51;36.41;101074.47;4400833;32;20022;-63
2021/01/16 00:05:01;;;;;;;;;;;;;;;14.50;36.42;101067.37;4399938;32;19960;-63
2021/01/16 00:07:27;;;;;;;;;;;;;;;14.52;36.36;101071.00;4399701;32;19954;-63
2021/01/16 00:09:53;;;;;;;;;;;;;;;14.50;36.41;101072.62;4399377;32;20776;-64
2021/01/16 00:12:19;;;;;;;;;;;;;;;14.51;36.41;101070.91;4400010;32;19966;-63
2021/01/16 00:14:45;;;;;;;;;;;;;;;14.48;36.43;101074.28;4399648;32;19947;-63
2021/01/16 00:17:10;;;;;;;;;;;;;;;14.47;36.41;101075.13;4398366;32;20342;-63
2021/01/16 00:19:36;;;;;;;;;;;;;;;14.48;36.43;101072.56;4390593;32;19985;-63
2021/01/16 00:22:02;;;;;;;;;;;;;;;14.48;36.41;101061.19;4383724;32;19973;-63
2021/01/16 00:24:28;;;;;;;;;;;;;;;14.51;36.40;101063.97;4383815;32;20464;-63
2021/01/16 00:26:54;;;;;;;;;;;;;;;14.46;36.45;101054.97;4360531;32;19989;-63
2021/01/16 00:29:20;;;;;;;;;;;;;;;14.45;36.48;101061.03;4391216;32;19951;-64
2021/01/16 00:31:46;;;;;;;;;;;;;;;14.43;36.53;101060.06;4376702;32;19959;-63
2021/01/16 00:34:12;;;;;;;;;;;;;;;14.43;36.51;101060.06;4357580;32;20002;-63
2021/01/16 00:36:38;;;;;;;;;;;;;;;14.42;36.51;101053.03;4386388;32;19963;-63
2021/01/16 00:39:03;;;;;;;;;;;;;;;14.43;36.48;101060.94;4385943;32;19970;-63
2021/01/16 00:41:29;;;;;;;;;;;;;;;14.43;36.47;101057.47;4385777;32;20359;-63
2021/01/16 00:43:55;;;;;;;;;;;;;;;14.39;36.53;101058.16;4385340;32;20024;-63
2021/01/16 00:46:21;;;;;;;;;;;;;;;14.42;36.50;101053.03;4369666;32;19951;-63
2021/01/16 00:48:47;;;;;;;;;;;;;;;14.43;36.45;101046.97;4376761;32;20019;-63
2021/01/16 00:51:13;;;;;;;;;;;;;;;14.43;36.47;101049.59;4372697;32;19951;-63
2021/01/16 00:53:39;;;;;;;;;;;;;;;14.40;36.50;101057.31;4371020;32;20019;-63
2021/01/16 00:56:05;;;;;;;;;;;;;;;14.42;36.48;101050.41;4384262;32;20005;-62
2021/01/16 00:58:31;;;;;;;;;;;;;;;14.41;36.49;101057.37;4373995;32;19955;-63
2021/01/16 01:00:57;;;;;;;;;;;;;;;14.41;36.48;101056.50;4392753;32;19959;-63
2021/01/16 01:03:22;;;;;;;;;;;;;;;14.41;36.48;101061.72;4402460;32;20029;-63
2021/01/16 01:05:48;;;;;;;;;;;;;;;14.38;36.56;101057.22;4402412;32;19955;-63
2021/01/16 01:08:14;;;;;;;;;;;;;;;14.38;36.55;101057.22;4403542;32;19961;-63
2021/01/16 01:10:40;;;;;;;;;;;;;;;14.39;36.56;101066.00;4401585;32;19989;-64
2021/01/16 01:13:06;;;;;;;;;;;;;;;14.39;36.52;101052.91;4402125;32;19965;-63
2021/01/16 01:15:32;;;;;;;;;;;;;;;14.35;36.59;101049.22;4403594;32;19950;-63
2021/01/16 01:17:58;;;;;;;;;;;;;;;14.34;36.59;101053.56;4404088;32;19951;-63
2021/01/16 01:20:24;;;;;;;;;;;;;;;14.34;36.62;101053.56;4395862;32;20010;-63
2021/01/16 01:22:50;;;;;;;;;;;;;;;14.34;36.66;101050.94;4388612;32;19970;-63
2021/01/16 01:25:15;;;;;;;;;;;;;;;14.38;36.55;101051.06;4393336;32;19970;-63
2021/01/16 01:27:41;;;;;;;;;;;;;;;14.34;36.63;101060.53;4402410;32;20468;-63
2021/01/16 01:30:07;;;;;;;;;;;;;;;14.34;36.59;101061.41;4399112;32;20014;-63
2021/01/16 01:32:33;;;;;;;;;;;;;;;14.32;36.66;101063.06;4403252;32;20020;-63
2021/01/16 01:34:59;;;;;;;;;;;;;;;14.36;36.59;101057.97;4402442;32;19958;-62
2021/01/16 01:37:25;;;;;;;;;;;;;;;14.34;36.61;101066.66;4401514;32;19955;-63
2021/01/16 01:39:51;;;;;;;;;;;;;;;14.33;36.64;101070.09;4403537;32;19955;-63
2021/01/16 01:42:17;;;;;;;;;;;;;;;14.31;36.67;101065.59;4402603;32;19998;-63
2021/01/16 01:44:43;;;;;;;;;;;;;;;14.31;36.70;101061.28;4402214;32;19973;-63
2021/01/16 01:47:08;;;;;;;;;;;;;;;14.30;36.69;101058.56;4402056;32;19954;-63
2021/01/16 01:49:34;;;;;;;;;;;;;;;14.27;36.76;101064.59;4402394;32;19954;-63
2021/01/16 01:52:00;;;;;;;;;;;;;;;14.30;36.70;101059.50;4375294;32;20328;-63
2021/01/16 01:54:26;;;;;;;;;;;;;;;14.32;36.67;101056.91;4375095;32;19975;-63
2021/01/16 01:56:52;;;;;;;;;;;;;;;14.31;36.70;101055.13;4390832;32;20009;-63
2021/01/16 01:59:18;;;;;;;;;;;;;;;14.27;36.75;101054.09;4386064;32;19948;-63
2021/01/16 02:01:44;;;;;;;;;;;;;;;14.28;36.75;101050.66;4380631;32;20340;-63
2021/01/16 02:04:09;;;;;;;;;;;;;;;14.30;36.63;101046.38;4392372;32;19964;-63
2021/01/16 02:06:35;;;;;;;;;;;;;;;14.28;36.68;101040.19;4389084;32;19988;-63
2021/01/16 02:09:01;;;;;;;;;;;;;;;14.27;36.68;101041.00;4401640;32;20304;-63
2021/01/16 02:11:27;;;;;;;;;;;;;;;14.29;36.66;101044.59;4399998;32;19955;-63
2021/01/16 02:13:53;;;;;;;;;;;;;;;14.29;36.66;101043.69;4401972;32;19955;-63
2021/01/16 02:16:19;;;;;;;;;;;;;;;14.27;36.66;101041.00;4379090;32;19966;-63
2021/01/16 02:18:45;;;;;;;;;;;;;;;14.27;36.67;101038.38;4386345;32;19963;-63
2021/01/16 02:21:11;;;;;;;;;;;;;;;14.24;36.70;101043.44;4387670;32;19957;-63
2021/01/16 02:23:36;;;;;;;;;;;;;;;14.23;36.76;101041.66;4392395;32;19958;-63
2021/01/16 02:26:02;;;;;;;;;;;;;;;14.24;36.73;101046.06;4401224;32;19961;-63
2021/01/16 02:28:28;;;;;;;;;;;;;;;14.23;36.76;101041.66;4401152;32;20032;-63
2021/01/16 02:30:54;;;;;;;;;;;;;;;14.26;36.75;101036.59;4383792;32;19958;-63
2021/01/16 02:33:20;;;;;;;;;;;;;;;14.24;36.72;101038.22;4398904;32;19958;-63
2021/01/16 02:35:46;;;;;;;;;;;;;;;14.23;36.75;101036.41;4402859;32;19954;-64
2021/01/16 02:38:12;;;;;;;;;;;;;;;14.24;36.73;101038.22;4388755;32;19995;-63
2021/01/16 02:40:38;;;;;;;;;;;;;;;14.24;36.66;101030.34;4385801;32;20442;-63
2021/01/16 02:43:04;;;;;;;;;;;;;;;14.22;36.72;101036.38;4390491;32;19958;-62
2021/01/16 02:45:30;;;;;;;;;;;;;;;14.21;36.72;101038.06;4401500;32;19954;-63
2021/01/16 02:47:56;;;;;;;;;;;;;;;14.20;36.75;101036.28;4401639;32;19958;-63
2021/01/16 02:50:22;;;;;;;;;;;;;;;14.22;36.69;101034.63;4401113;32;20025;-63
2021/01/16 02:52:48;;;;;;;;;;;;;;;14.20;36.71;101036.28;4365261;32;20026;-63
2021/01/16 02:55:13;;;;;;;;;;;;;;;14.21;36.69;101032.84;4376827;32;20018;-63
2021/01/16 02:57:39;;;;;;;;;;;;;;;14.21;36.70;101034.56;4373186;32;20287;-63
2021/01/16 03:00:05;;;;;;;;;;;;;;;14.19;36.72;101030.13;4398196;32;19963;-63
2021/01/16 03:02:31;;;;;;;;;;;;;;;14.19;36.73;101034.50;4401580;32;19950;-63
2021/01/16 03:04:57;;;;;;;;;;;;;;;14.19;36.73;101034.50;4400672;32;20481;-63
2021/01/16 03:07:23;;;;;;;;;;;;;;;14.19;36.65;101034.50;4387424;32;20033;-63
2021/01/16 03:09:49;;;;;;;;;;;;;;;14.18;36.64;101036.19;4400999;32;19943;-63
2021/01/16 03:12:15;;;;;;;;;;;;;;;14.18;36.67;101037.94;4398543;32;19958;-63
2021/01/16 03:14:41;;;;;;;;;;;;;;;14.17;36.67;101037.03;4400828;32;19966;-63
2021/01/16 03:17:06;;;;;;;;;;;;;;;14.16;36.68;101031.72;4393773;32;19966;-63
2021/01/16 03:19:32;;;;;;;;;;;;;;;14.16;36.64;101042.22;4370086;32;19958;-63
2021/01/16 03:21:58;;;;;;;;;;;;;;;14.16;36.63;101044.81;4363922;32;19973;-63
2021/01/16 03:24:24;;;;;;;;;;;;;;;14.13;36.64;101049.88;4387291;32;20016;-63
2021/01/16 03:26:50;;;;;;;;;;;;;;;14.13;36.70;101052.50;4386151;32;20332;-63
2021/01/16 03:29:16;;;;;;;;;;;;;;;14.14;36.66;101056.97;4372216;32;19990;-63
2021/01/16 03:31:42;;;;;;;;;;;;;;;14.15;36.58;101053.50;4395723;32;20004;-63
2021/01/16 03:34:08;;;;;;;;;;;;;;;14.16;36.54;101060.53;4399525;32;19992;-63
2021/01/16 03:36:34;;;;;;;;;;;;;;;14.13;36.57;101049.88;4377960;32;19951;-63
2021/01/16 03:39:00;;;;;;;;;;;;;;;14.12;36.57;101043.78;4381671;32;20359;-62
2021/01/16 03:41:25;;;;;;;;;;;;;;;14.13;36.57;101055.13;4393527;32;19951;-63
2021/01/16 03:43:51;;;;;;;;;;;;;;;14.12;36.59;101048.09;4394098;32;20001;-62
2021/01/16 03:46:17;;;;;;;;;;;;;;;14.11;36.58;101051.53;4394365;32;19966;-63
2021/01/16 03:48:43;;;;;;;;;;;;;;;14.09;36.63;101042.72;4392522;32;20004;-62
2021/01/16 03:51:09;;;;;;;;;;;;;;;14.07;36.58;101044.38;4394288;32;19951;-62
2021/01/16 03:53:35;;;;;;;;;;;;;;;14.07;36.59;101040.00;4393730;32;19974;-63
2021/01/16 03:56:01;;;;;;;;;;;;;;;14.07;36.60;101041.75;4393697;32;19951;-63
2021/01/16 03:58:27;;;;;;;;;;;;;;;14.08;36.55;101046.16;4394063;32;20370;-63
2021/01/16 04:00:53;;;;;;;;;;;;;;;14.07;36.53;101045.25;4382015;32;19996;-63
2021/01/16 04:03:18;;;;;;;;;;;;;;;14.07;36.61;101039.12;4394592;32;19957;-63
2021/01/16 04:05:44;;;;;;;;;;;;;;;14.08;36.54;101035.69;4395459;32;19939;-63
2021/01/16 04:08:10;;;;;;;;;;;;;;;14.10;36.46;101049.75;4393533;32;20016;-63
2021/01/16 04:10:36;;;;;;;;;;;;;;;14.09;36.46;101051.50;4392809;32;20010;-63
2021/01/16 04:13:02;;;;;;;;;;;;;;;14.10;36.47;101049.75;4393209;32;19998;-63
2021/01/16 04:15:28;;;;;;;;;;;;;;;14.05;36.60;101046.91;4391918;32;20447;-63
2021/01/16 04:17:54;;;;;;;;;;;;;;;14.04;36.52;101051.25;4395977;32;19954;-63
2021/01/16 04:20:20;;;;;;;;;;;;;;;14.03;36.46;101049.47;4400998;32;19950;-63
2021/01/16 04:22:46;;;;;;;;;;;;;;;14.05;36.46;101047.81;4402446;32;19950;-62
2021/01/16 04:25:12;;;;;;;;;;;;;;;14.05;36.46;101047.81;4400300;32;20036;-63
2021/01/16 04:27:38;;;;;;;;;;;;;;;14.05;36.32;101052.12;4398747;32;20409;-63
2021/01/16 04:30:04;;;;;;;;;;;;;;;14.04;36.42;101061.72;4400944;32;19945;-62
2021/01/16 04:32:30;;;;;;;;;;;;;;;14.04;36.37;101056.50;4402086;32;19954;-63
2021/01/16 04:34:56;;;;;;;;;;;;;;;14.06;36.38;101064.41;4384933;32;20233;-63
2021/01/16 04:37:21;;;;;;;;;;;;;;;14.04;36.50;101061.72;4382692;32;19958;-63
2021/01/16 04:39:47;;;;;;;;;;;;;;;14.08;36.30;101067.13;4378134;32;20394;-63
2021/01/16 04:42:13;;;;;;;;;;;;;;;14.03;36.43;101062.56;4373476;32;19959;-63
2021/01/16 04:44:39;;;;;;;;;;;;;;;14.05;36.44;101062.62;4386302;32;20054;-63
2021/01/16 04:47:05;;;;;;;;;;;;;;;14.04;36.43;101064.34;4367377;32;19975;-63
2021/01/16 04:49:31;;;;;;;;;;;;;;;14.04;36.44;101063.44;4381135;32;19977;-63
2021/01/16 04:51:57;;;;;;;;;;;;;;;14.05;36.30;101058.28;4389377;32;19951;-63
2021/01/16 04:54:23;;;;;;;;;;;;;;;14.04;36.37;101061.72;4383418;32;20046;-63
2021/01/16 04:56:49;;;;;;;;;;;;;;;14.04;36.37;101072.22;4388011;32;19954;-63
2021/01/16 04:59:15;;;;;;;;;;;;;;;14.04;36.41;101072.22;4367786;32;19997;-63
2021/01/16 05:01:40;;;;;;;;;;;;;;;14.03;36.40;101070.41;4387461;32;19966;-63
2021/01/16 05:04:06;;;;;;;;;;;;;;;14.04;36.34;101066.97;4395176;32;19942;-63
2021/01/16 05:06:32;;;;;;;;;;;;;;;14.01;36.42;101065.91;4377817;32;19955;-63
2021/01/16 05:08:59;;;;;;;;;;;;;;;14.02;36.41;101057.22;4395435;32;19993;-63
2021/01/16 05:11:25;;;;;;;;;;;;;;;14.04;36.34;101056.50;4395571;32;19950;-63
2021/01/16 05:13:51;;;;;;;;;;;;;;;14.04;36.34;101055.59;4396971;32;20073;-63
2021/01/16 05:16:17;;;;;;;;;;;;;;;14.06;36.30;101053.94;4395152;32;19950;-63
2021/01/16 05:18:42;;;;;;;;;;;;;;;14.01;36.42;101055.44;4399324;32;19950;-63
2021/01/16 05:21:09;;;;;;;;;;;;;;;14.02;36.49;101054.63;4396571;32;19939;-63
2021/01/16 05:23:34;;;;;;;;;;;;;;;14.01;36.41;101050.19;4398179;32;19954;-63
2021/01/16 05:26:00;;;;;;;;;;;;;;;14.02;36.38;101049.38;4395783;32;19986;-63
2021/01/16 05:28:26;;;;;;;;;;;;;;;14.03;36.37;101054.69;4397592;32;19994;-63
2021/01/16 05:30:52;;;;;;;;;;;;;;;14.02;36.39;101047.66;4393621;32;20425;-63
2021/01/16 05:33:18;;;;;;;;;;;;;;;14.01;36.33;101040.63;4389549;32;19959;-63
2021/01/16 05:35:44;;;;;;;;;;;;;;;14.01;36.35;101040.63;4385731;32;20350;-63
2021/01/16 05:38:10;;;;;;;;;;;;;;;14.00;36.36;101044.06;4388857;32;19939;-63
2021/01/16 05:40:36;;;;;;;;;;;;;;;13.98;36.34;101035.22;4384954;32;19954;-63
2021/01/16 05:43:02;;;;;;;;;;;;;;;14.03;36.22;101033.75;4372076;32;20040;-63
2021/01/16 05:45:27;;;;;;;;;;;;;;;13.99;36.35;101031.78;4383236;32;19983;-63
2021/01/16 05:47:53;;;;;;;;;;;;;;;14.00;36.24;101030.06;4375797;32;19955;-62
2021/01/16 05:50:19;;;;;;;;;;;;;;;13.98;36.27;101024.75;4391478;32;19970;-61
2021/01/16 05:52:45;;;;;;;;;;;;;;;13.95;34.59;101014.13;4399222;32;19946;-61
2021/01/16 05:55:11;;;;;;;;;;;;;;;13.91;35.28;101005.22;4402559;32;20651;-62
2021/01/16 05:57:37;;;;;;;;;;;;;;;13.92;35.64;101011.38;4402339;32;19988;-61
2021/01/16 06:00:03;;;;;;;;;;;;;;;13.97;35.66;101008.97;4403186;32;19961;-63
2021/01/16 06:02:29;;;;;;;;;;;;;;;13.97;35.82;101012.47;4398777;32;20306;-63
2021/01/16 06:04:56;;;;;;;;;;;;;;;14.03;35.92;101010.19;4401152;32;19989;-63
2021/01/16 06:07:21;;;;;;;;;;;;;;;14.09;35.76;101013.91;4402557;32;19958;-63
2021/01/16 06:09:47;;;;;;;;;;;;;;;14.11;35.68;101017.50;4401689;32;20327;-63
2021/01/16 06:12:15;;;;;;;;;;;;;;;14.12;35.66;101006.19;4398324;32;19942;-63
2021/01/16 06:14:41;;;;;;;;;;;;;;;14.17;35.57;101012.56;4400600;32;19969;-63
2021/01/16 06:17:06;;;;;;;;;;;;;;;14.22;35.48;101003.19;4400964;32;20155;-63
2021/01/16 06:19:32;;;;;;;;;;;;;;;14.24;35.42;101009.41;4383491;32;19963;-67
2021/01/16 06:21:58;;;;;;;;;;;;;;;14.09;35.57;101016.53;4360980;32;19971;-66
2021/01/16 06:24:24;;;;;;;;;;;;;;;13.98;35.96;101021.25;4371339;32;19959;-66
2021/01/16 06:26:50;;;;;;;;;;;;;;;13.95;35.82;101021.06;4372150;32;20383;-65
2021/01/16 06:29:16;;;;;;;;;;;;;;;13.99;35.56;101026.53;4384960;32;19959;-67
2021/01/16 06:31:42;;;;;;;;;;;;;;;14.03;35.50;101032.84;4389080;32;19989;-67
2021/01/16 06:34:09;;;;;;;;;;;;;;;14.01;35.36;101032.78;4401766;32;19958;-66
2021/01/16 06:36:35;;;;;;;;;;;;;;;14.03;35.48;101031.13;4401758;32;19975;-65
2021/01/16 06:39:01;;;;;;;;;;;;;;;14.10;35.37;101029.72;4401530;32;20046;-66
2021/01/16 06:41:27;;;;;;;;;;;;;;;14.12;35.37;101027.13;4374181;32;19986;-67
2021/01/16 06:43:53;;;;;;;;;;;;;;;14.13;35.35;101034.16;4388114;32;20013;-66
2021/01/16 06:46:19;;;;;;;;;;;;;;;14.14;35.36;101036.00;4376362;32;19966;-65
2021/01/16 06:48:45;;;;;;;;;;;;;;;14.15;35.39;101032.56;4371959;32;19962;-66
2021/01/16 06:51:11;;;;;;;;;;;;;;;14.11;35.42;101033.22;4387429;32;19965;-66
2021/01/16 06:53:37;;;;;;;;;;;;;;;14.13;35.45;101031.56;4400894;32;20800;-66
2021/01/16 06:56:03;;;;;;;;;;;;;;;14.14;35.44;101030.75;4400650;32;19954;-66
2021/01/16 06:58:28;;;;;;;;;;;;;;;14.15;35.43;101037.78;4402211;32;19988;-65
2021/01/16 07:00:55;;;;;;;;;;;;;;;14.14;35.48;101036.87;4388241;32;20355;-65
2021/01/16 07:03:21;;;;;;;;;;;;;;;14.15;35.45;101038.66;4374886;32;19955;-66
2021/01/16 07:05:47;;;;;;;;;;;;;;;14.18;35.50;101037.94;4381258;32;20362;-65
2021/01/16 07:08:12;;;;;;;;;;;;;;;14.16;35.50;101034.34;4294168;32;64064;-66
2021/01/16 07:10:38;;;;;;;;;;;;;;;14.14;35.57;101025.53;4366604;32;19973;-67
2021/01/16 07:13:04;;;;;;;;;;;;;;;14.14;35.61;101022.91;4385045;32;20489;-65
2021/01/16 07:15:30;;;;;;;;;;;;;;;14.12;35.58;101020.19;4399898;32;19967;-66
2021/01/16 07:17:56;;;;;;;;;;;;;;;14.15;35.53;101022.06;4401167;32;19954;-65
2021/01/16 07:20:22;;;;;;;;;;;;;;;14.16;35.48;101018.62;4400166;32;19977;-66
2021/01/16 07:22:48;;;;;;;;;;;;;;;14.13;35.63;101021.06;4387173;32;19958;-66
2021/01/16 07:25:14;;;;;;;;;;;;;;;14.08;35.59;101018.25;4401040;32;20001;-66
2021/01/16 07:27:40;;;;;;;;;;;;;;;14.06;35.60;101019.87;4376643;32;19974;-67
2021/01/16 07:30:06;;;;;;;;;;;;;;;14.03;35.80;101022.34;4385411;32;19995;-66
2021/01/16 07:32:32;;;;;;;;;;;;;;;14.00;35.88;101017.88;4370836;32;19966;-65
2021/01/16 07:34:58;;;;;;;;;;;;;;;13.99;35.84;101015.19;4396991;32;20310;-66
2021/01/16 07:37:23;;;;;;;;;;;;;;;13.95;35.95;101019.38;4400718;32;19969;-65
2021/01/16 07:39:49;;;;;;;;;;;;;;;13.89;36.05;101008.56;4400644;32;19988;-65
2021/01/16 07:42:15;;;;;;;;;;;;;;;13.90;36.04;101015.63;4363664;32;19959;-65
2021/01/16 07:44:41;;;;;;;;;;;;;;;13.91;35.95;101017.44;4370795;32;19951;-66
2021/01/16 07:47:07;;;;;;;;;;;;;;;13.90;35.97;101005.16;4383754;32;20002;-65
2021/01/16 07:49:33;;;;;;;;;;;;;;;13.88;36.04;101012.03;4384321;32;20295;-66
2021/01/16 07:51:59;;;;;;;;;;;;;;;13.85;36.21;101004.94;4384973;32;19959;-66
2021/01/16 07:54:25;;;;;;;;;;;;;;;13.83;37.06;101003.97;4394527;32;19958;-65
2021/01/16 07:56:51;;;;;;;;;;;;;;;13.80;37.05;100997.69;4370332;32;20050;-67
2021/01/16 07:59:17;;;;;;;;;;;;;;;13.79;37.78;101001.12;4378524;32;20006;-65
2021/01/16 08:01:42;;;;;;;;;;;;;;;13.75;37.71;100997.44;4385666;32;20019;-66
2021/01/16 08:04:08;;;;;;;;;;;;;;;13.74;37.12;100993.91;4378308;32;19959;-66
2021/01/16 08:06:34;;;;;;;;;;;;;;;13.73;37.24;100992.13;4399646;32;19961;-65
2021/01/16 08:09:00;;;;;;;;;;;;;;;13.71;37.32;100990.28;4399932;32;19958;-66
2021/01/16 08:11:26;;;;;;;;;;;;;;;13.72;37.16;100995.56;4384990;32;19970;-65
2021/01/16 08:13:52;;;;;;;;;;;;;;;13.70;37.02;100989.34;4400123;32;19988;-65
2021/01/16 08:16:18;;;;;;;;;;;;;;;13.68;37.45;100993.63;4401130;32;19965;-65
2021/01/16 08:18:44;;;;;;;;;;;;;;;13.68;37.08;100993.63;4399995;32;20369;-65
2021/01/16 08:21:11;;;;;;;;;;;;;;;13.67;37.07;101002.31;4399927;32;19950;-65
2021/01/16 08:23:36;;;;;;;;;;;;;;;13.67;37.17;101004.00;4400191;32;19962;-65
2021/01/16 08:26:02;;;;;;;;;;;;;;;13.65;37.21;101011.81;4400766;32;20333;-67
2021/01/16 08:28:28;;;;;;;;;;;;;;;13.66;37.13;101013.59;4385916;32;20003;-66
2021/01/16 08:30:54;;;;;;;;;;;;;;;13.65;37.19;101008.28;4400417;32;19950;-66
2021/01/16 08:33:20;;;;;;;;;;;;;;;13.65;37.13;101019.66;4385282;32;19968;-66
2021/01/16 08:35:47;;;;;;;;;;;;;;;13.66;36.93;101021.44;4385610;32;19972;-66
2021/01/16 08:38:12;;;;;;;;;;;;;;;13.66;37.29;101010.97;4384135;32;19958;-65
2021/01/16 08:40:38;;;;;;;;;;;;;;;13.63;37.12;101006.47;4371352;32;19969;-66
2021/01/16 08:43:04;;;;;;;;;;;;;;;13.64;37.05;101002.13;4384209;32;19999;-66
2021/01/16 08:45:30;;;;;;;;;;;;;;;13.62;36.68;101012.53;4384353;32;20298;-65
2021/01/16 08:47:56;;;;;;;;;;;;;;;13.65;36.46;101011.81;4372762;32;19972;-65
2021/01/16 08:50:22;;;;;;;;;;;;;;;13.66;36.83;101010.97;4392874;32;19990;-66
2021/01/16 08:52:48;;;;;;;;;;;;;;;13.69;36.74;101011.13;4399789;32;19962;-66
2021/01/16 08:55:14;;;;;;;;;;;;;;;13.74;36.55;101013.97;4400231;32;20018;-65
2021/01/16 08:57:40;;;;;;;;;;;;;;;13.80;36.27;101008.16;4400079;32;20315;-65
2021/01/16 09:00:05;;;;;;;;;;;;;;;13.83;36.15;101009.22;4399597;32;20012;-66
2021/01/16 09:02:31;;;;;;;;;;;;;;;13.84;36.13;101008.38;4395250;32;20299;-65
2021/01/16 09:04:57;;;;;;;;;;;;;;;13.84;36.16;101011.00;4375184;32;19966;-66
2021/01/16 09:07:23;;;;;;;;;;;;;;;13.82;36.56;101006.50;4386284;32;20067;-65
2021/01/16 09:09:49;;;;;;;;;;;;;;;13.80;36.75;101006.41;4393853;32;19977;-66
2021/01/16 09:12:15;;;;;;;;;;;;;;;13.76;37.26;100997.50;4389411;32;19947;-65
2021/01/16 09:14:41;;;;;;;;;;;;;;;13.73;38.17;101002.59;4391349;32;19974;-65
2021/01/16 09:17:07;;;;;;;;;;;;;;;13.71;38.22;100999.00;4389853;32;20023;-65
2021/01/16 09:19:32;;;;;;;;;;;;;;;13.69;37.65;101005.88;4392940;32;20287;-66
2021/01/16 09:21:58;;;;;;;;;;;;;;;13.68;38.17;100998.84;4389846;32;19985;-66
2021/01/16 09:24:25;;;;;;;;;;;;;;;13.65;37.50;101006.56;4393196;32;19953;-66
2021/01/16 09:26:50;;;;;;;;;;;;;;;13.63;37.02;101006.47;4393847;32;20277;-65
2021/01/16 09:29:16;;;;;;;;;;;;;;;13.63;37.46;101006.47;4392955;32;20003;-66
2021/01/16 09:31:43;;;;;;;;;;;;;;;13.62;36.84;101004.69;4395736;32;20042;-65
2021/01/16 09:34:09;;;;;;;;;;;;;;;13.62;37.28;100999.44;4392687;32;19989;-65
2021/01/16 09:36:35;;;;;;;;;;;;;;;13.63;37.02;100995.09;4393500;32;20041;-66
2021/01/16 09:39:01;;;;;;;;;;;;;;;13.64;37.47;100991.66;4389411;32;19993;-66
2021/01/16 09:41:27;;;;;;;;;;;;;;;13.67;36.92;100985.69;4393010;32;19983;-67
2021/01/16 09:43:53;;;;;;;;;;;;;;;13.73;36.56;100984.25;4381565;32;19989;-66
2021/01/16 09:46:19;;;;;;;;;;;;;;;13.81;36.26;100986.37;4401487;32;19954;-66
2021/01/16 09:48:46;;;;;;;;;;;;;;;13.86;36.14;100982.25;4391107;32;20354;-65
2021/01/16 09:51:11;;;;;;;;;;;;;;;13.85;36.13;100981.38;4356984;32;19990;-65
2021/01/16 09:53:38;;;;;;;;;;;;;;;13.87;36.05;100973.56;4379850;32;20322;-65
2021/01/16 09:56:04;;;;;;;;;;;;;;;13.89;36.05;100972.84;4385210;32;19955;-65
2021/01/16 09:58:30;;;;;;;;;;;;;;;13.90;35.93;100973.75;4384794;32;20783;-66
2021/01/16 10:00:56;;;;;;;;;;;;;;;13.88;36.09;100963.19;4387674;32;19955;-58
2021/01/16 10:03:22;;;;;;;;;;;;;;;13.85;35.80;100967.38;4390770;32;20086;-68
2021/01/16 10:05:50;;;;;;;;;;;;;;;13.54;31.29;100960.62;4385549;32;19967;-60
2021/01/16 10:08:16;;;;;;;;;;;;;;;12.88;30.37;100967.75;4384514;32;19967;-60
2021/01/16 10:10:42;;;;;;;;;;;;;;;12.70;32.11;100975.50;4371978;32;20496;-59
2021/01/16 10:13:08;;;;;;;;;;;;;;;12.79;31.26;100969.88;4370447;32;19958;-59
2021/01/16 10:15:34;;;;;;;;;;;;;;;12.85;30.63;100967.59;4380313;32;19959;-59
2021/01/16 10:18:00;;;;;;;;;;;;;;;12.74;29.95;100966.13;4398692;32;20312;-57
2021/01/16 10:20:26;;;;;;;;;;;;;;;12.71;29.40;100974.69;4400873;32;20004;-60
2021/01/16 10:22:52;;;;;;;;;;;;;;;12.61;28.76;100970.69;4401339;32;20283;-60
2021/01/16 10:25:18;;;;;;;;;;;;;;;12.60;28.83;100974.12;4380650;32;20301;-60
2021/01/16 10:27:44;;;;;;;;;;;;;;;12.61;28.27;100970.69;4384279;32;19962;-59
2021/01/16 10:30:10;;;;;;;;;;;;;;;12.57;28.36;100962.59;4391404;32;19977;-59
2021/01/16 10:32:36;;;;;;;;;;;;;;;12.54;28.24;100958.13;4386667;32;20049;-60
2021/01/16 10:35:02;;;;;;;;;;;;;;;12.46;28.29;100951.56;4381247;32;20376;-59
2021/01/16 10:37:29;;;;;;;;;;;;;;;12.39;28.12;100941.59;4370486;32;20002;-59
2021/01/16 10:39:55;;;;;;;;;;;;;;;12.35;28.16;100933.59;4379841;32;20481;-59
2021/01/16 10:42:21;;;;;;;;;;;;;;;12.29;28.11;100940.22;4385373;32;20060;-60
2021/01/16 10:44:47;;;;;;;;;;;;;;;12.23;28.25;100930.31;4378897;32;19960;-59
2021/01/16 10:47:13;;;;;;;;;;;;;;;12.28;28.03;100933.19;4367766;32;20371;-59
2021/01/16 10:49:39;;;;;;;;;;;;;;;12.24;28.14;100924.28;4379911;32;19963;-56
2021/01/16 10:52:05;;;;;;;;;;;;;;;12.25;28.02;100925.19;4378822;32;19970;-58
2021/01/16 10:54:31;;;;;;;;;;;;;;;12.27;27.98;100921.81;4381176;32;19974;-57
2021/01/16 10:56:57;;;;;;;;;;;;;;;12.15;28.04;100914.25;4377174;32;19997;-57
2021/01/16 10:59:23;;;;;;;;;;;;;;;12.17;27.78;100915.22;4376701;32;20441;-59
2021/01/16 11:01:49;;;;;;;;;;;;;;;12.03;27.77;100906.62;4377178;32;20037;-57
2021/01/16 11:04:15;;;;;;;;;;;;;;;11.80;28.25;100908.84;4361708;32;19955;-57
2021/01/16 11:06:41;;;;;;;;;;;;;;;11.69;28.46;100899.50;4377914;32;20010;-59
2021/01/16 11:09:07;;;;;;;;;;;;;;;11.85;28.28;100902.97;4373171;32;19958;-56
2021/01/16 11:11:33;;;;;;;;;;;;;;;11.90;28.25;100901.50;4368956;32;19955;-61
2021/01/16 11:13:58;;;;;;;;;;;;;;;12.01;27.90;100897.75;4369008;32;19973;-57
2021/01/16 11:16:24;;;;;;;;;;;;;;;11.97;28.15;100895.81;4383204;32;19973;-58
2021/01/16 11:18:50;;;;;;;;;;;;;;;11.79;28.66;100895.69;4385330;32;19962;-67
2021/01/16 11:21:16;;;;;;;;;;;;;;;11.12;27.92;100894.50;4398006;32;19991;-66
2021/01/16 11:23:42;;;;;;;;;;;;;;;9.66;30.20;100891.72;4401722;32;20138;-67
2021/01/16 11:26:08;;;;;;;;;;;;;;;9.41;31.05;100889.19;4393684;32;20305;-67
2021/01/16 11:28:34;;;;;;;;;;;;;;;10.38;30.81;100881.44;4383478;32;19981;-66
2021/01/16 11:31:00;;;;;;;;;;;;;;;11.11;30.19;100882.28;4393469;32;19985;-68
2021/01/16 11:33:26;;;;;;;;;;;;;;;11.63;30.07;100884.41;4389370;32;20542;-67
2021/01/16 11:35:51;;;;;;;;;;;;;;;11.95;29.76;100880.06;4395391;32;19954;-67
2021/01/16 11:38:17;;;;;;;;;;;;;;;12.20;29.33;100877.94;4386695;32;19946;-68
2021/01/16 11:40:43;;;;;;;;;;;;;;;12.33;29.43;100875.16;4399656;32;19958;-68
2021/01/16 11:43:09;;;;;;;;;;;;;;;12.47;29.30;100868.06;4385109;32;19958;-67
2021/01/16 11:45:35;;;;;;;;;;;;;;;12.54;29.20;100864.06;4390643;32;19951;-67
2021/01/16 11:48:01;;;;;;;;;;;;;;;12.62;29.31;100862.72;4388995;32;20307;-68
2021/01/16 11:50:27;;;;;;;;;;;;;;;12.67;29.42;100862.09;4390829;32;20260;-68
2021/01/16 11:52:53;;;;;;;;;;;;;;;12.66;29.70;100866.41;4401292;32;19980;-68
2021/01/16 11:55:20;;;;;;;;;;;;;;;12.77;29.69;100859.09;4400376;32;19963;-66
2021/01/16 11:57:46;;;;;;;;;;;;;;;12.83;29.49;100851.59;4400888;32;19970;-66
2021/01/16 12:00:12;;;;;;;;;;;;;;;12.88;29.39;100847.47;4396189;32;20381;-66
2021/01/16 12:02:37;;;;;;;;;;;;;;;12.97;29.34;100854.00;4397078;32;19950;-65
2021/01/16 12:05:03;;;;;;;;;;;;;;;13.01;29.40;100841.19;4387858;32;19965;-66
2021/01/16 12:07:29;;;;;;;;;;;;;;;13.09;29.29;100833.72;4392046;32;19967;-66
2021/01/16 12:09:55;;;;;;;;;;;;;;;13.16;29.31;100825.34;4388347;32;20078;-67
2021/01/16 12:12:21;;;;;;;;;;;;;;;13.20;29.65;100832.53;4391495;32;19935;-67
2021/01/16 12:14:48;;;;;;;;;;;;;;;13.29;29.48;100823.34;4379205;32;20279;-66
2021/01/16 12:17:15;;;;;;;;;;;;;;;13.33;29.52;100813.09;4379148;32;19993;-67
2021/01/16 12:19:40;;;;;;;;;;;;;;;13.37;29.42;100811.50;4378934;32;20335;-66
2021/01/16 12:22:06;;;;;;;;;;;;;;;13.41;29.47;100804.72;4375431;32;19958;-67
2021/01/16 12:24:32;;;;;;;;;;;;;;;13.39;29.62;100802.00;4385403;32;20577;-67
2021/01/16 12:26:58;;;;;;;;;;;;;;;13.37;29.70;100793.19;4391428;32;19989;-66